Time;durP1;ratioP1;P1;durP2;ratioP2;P2;SDS_P1;SDS_P2;PMS_P1;PMS_P2;Temp;Humidity;BMP_temperature;BMP_pressure;BME280_temperature;BME280_humidity;BME280_pressure;Samples;Min_cycle;Max_cycle;Signal;HPM_P1;HPM_P2
2022/10/29 00:02:52;;;;;;;2.08;0.82;;;;;;;20.59;51.84;102029.81;16133146;19;129564;-43
2022/10/29 00:08:14;;;;;;;2.67;0.80;;;;;;;20.56;51.38;102039.44;16132843;19;129358;-42
2022/10/29 00:13:36;;;;;;;3.15;1.30;;;;;;;20.57;51.64;102043.09;16130688;19;129122;-42
2022/10/29 00:18:58;;;;;;;1.30;0.70;;;;;;;20.55;51.44;102037.78;16133937;19;130478;-44
2022/10/29 00:24:20;;;;;;;2.20;0.77;;;;;;;20.54;51.84;102038.84;16131112;19;129489;-42
2022/10/29 00:29:42;;;;;;;1.40;0.82;;;;;;;20.53;51.42;102042.72;16133204;19;129639;-42
2022/10/29 00:35:03;;;;;;;1.55;0.95;;;;;;;20.52;51.43;102043.78;16130884;19;129541;-42
2022/10/29 00:40:25;;;;;;;1.45;0.88;;;;;;;20.51;51.36;102033.75;16132079;19;129280;-42
2022/10/29 00:46:01;;;;;;;1.90;0.75;;;;;;;20.52;51.52;102040.13;16131400;19;129615;-42
2022/10/29 00:51:24;;;;;;;;;;;;;;;20.48;51.46;102038.94;16133025;19;129451;-41
2022/10/29 00:56:49;;;;;;;2.15;0.73;;;;;;;20.49;51.60;102037.84;16131700;19;129251;-42
2022/10/29 01:02:11;;;;;;;;;;;;;;;20.45;51.85;102029.09;16132015;19;130037;-42
2022/10/29 01:07:33;;;;;;;2.67;0.60;;;;;;;20.45;51.56;102035.53;16132842;19;129940;-42
2022/10/29 01:13:13;;;;;;;1.75;0.90;;;;;;;20.44;51.36;102025.47;16129848;19;130028;-41
2022/10/29 01:19:20;;;;;;;1.15;0.60;;;;;;;20.44;51.52;102019.06;16128907;19;129865;-41
2022/10/29 01:24:55;;;;;;;1.25;0.60;;;;;;;20.42;51.59;102007.34;16129505;19;130192;-42
2022/10/29 01:30:36;;;;;;;2.45;1.00;;;;;;;20.43;51.64;102009.06;16128138;19;130129;-42
2022/10/29 01:36:32;;;;;;;1.77;0.60;;;;;;;20.41;51.46;102005.66;16126516;19;129219;-43
2022/10/29 01:42:09;;;;;;;1.20;0.60;;;;;;;20.39;51.23;101999.47;16128225;19;129283;-42
2022/10/29 01:47:38;;;;;;;1.80;0.82;;;;;;;20.40;51.32;101992.81;16127833;19;129643;-41
2022/10/29 01:53:03;;;;;;;1.83;0.70;;;;;;;20.38;51.30;101973.59;16127747;19;128996;-41
2022/10/29 01:58:25;;;;;;;2.37;0.80;;;;;;;20.37;51.20;101982.16;16124945;19;130410;-41
2022/10/29 02:03:49;;;;;;;2.10;0.70;;;;;;;20.38;51.42;101967.19;16127304;19;134570;-41
2022/10/29 02:09:53;;;;;;;1.98;0.52;;;;;;;20.37;51.55;101966.31;16126771;19;129683;-42
2022/10/29 02:15:31;;;;;;;1.65;0.63;;;;;;;20.37;51.25;101965.50;16124674;19;128980;-42
2022/10/29 02:20:52;;;;;;;2.67;0.63;;;;;;;20.35;51.43;101954.63;16125631;19;129523;-45
2022/10/29 02:26:14;;;;;;;1.20;0.60;;;;;;;20.35;51.63;101959.31;16125309;19;129868;-42
2022/10/29 02:31:36;;;;;;;1.75;0.68;;;;;;;20.34;51.59;101949.28;16128218;19;130195;-42
2022/10/29 02:36:58;;;;;;;1.13;0.68;;;;;;;20.33;51.24;101940.09;16122748;19;130567;-42
2022/10/29 02:42:20;;;;;;;0.90;0.70;;;;;;;20.33;51.24;101933.69;16120371;19;129552;-42
2022/10/29 02:47:41;;;;;;;1.40;0.60;;;;;;;20.33;51.59;101925.34;16124564;19;131404;-42
2022/10/29 02:53:03;;;;;;;0.70;0.60;;;;;;;20.32;51.55;101929.19;16122911;19;129288;-44
2022/10/29 02:58:25;;;;;;;1.08;0.70;;;;;;;20.32;51.40;101926.44;16123507;19;129689;-43
2022/10/29 03:03:46;;;;;;;0.88;0.50;;;;;;;20.32;51.14;101934.75;16122788;19;130870;-42
2022/10/29 03:09:08;;;;;;;0.73;0.50;;;;;;;20.30;51.19;101918.34;16121818;19;129296;-42
2022/10/29 03:14:30;;;;;;;0.80;0.60;;;;;;;20.29;51.07;101889.72;16119664;19;130450;-42
2022/10/29 03:19:52;;;;;;;1.33;0.47;;;;;;;20.29;51.40;101875.81;16121177;19;129947;-42
2022/10/29 03:25:13;;;;;;;3.05;0.85;;;;;;;20.27;51.12;101872.41;16118612;19;129900;-43
2022/10/29 03:30:35;;;;;;;2.08;0.60;;;;;;;20.27;51.27;101871.56;16119196;19;130650;-43
2022/10/29 03:36:05;;;;;;;1.13;0.50;;;;;;;20.28;51.44;101868.56;16121647;19;129360;-41
2022/10/29 03:41:27;;;;;;;0.95;0.38;;;;;;;20.26;51.12;101854.03;16122311;19;129904;-42
2022/10/29 03:46:49;;;;;;;0.93;0.55;;;;;;;20.24;51.08;101842.31;16119983;19;130275;-44
2022/10/29 03:52:10;;;;;;;1.00;0.73;;;;;;;20.23;51.22;101837.84;16122892;19;129778;-42
2022/10/29 03:57:32;;;;;;;2.17;0.90;;;;;;;20.22;51.54;101836.13;16119722;19;130158;-42
2022/10/29 04:02:54;;;;;;;1.35;0.68;;;;;;;20.23;51.07;101837.00;16131497;19;129506;-44
2022/10/29 04:08:16;;;;;;;1.02;0.52;;;;;;;20.23;51.42;101834.22;16133227;19;131079;-44
2022/10/29 04:13:39;;;;;;;2.00;0.65;;;;;;;20.22;51.44;101819.47;16132441;19;129262;-41
2022/10/29 04:19:02;;;;;;;1.20;0.45;;;;;;;20.22;51.56;101824.19;16131603;19;129784;-42
2022/10/29 04:24:23;;;;;;;1.00;0.50;;;;;;;20.21;51.32;101820.56;16133849;19;129638;-41
2022/10/29 04:30:06;;;;;;;0.40;0.40;;;;;;;20.20;51.53;101816.06;16134922;19;129590;-43
2022/10/29 04:35:28;;;;;;;5.57;0.60;;;;;;;20.19;51.40;101813.53;16129871;19;130538;-42
2022/10/29 04:40:49;;;;;;;0.50;0.40;;;;;;;20.19;51.33;101819.94;16132936;19;129512;-43
2022/10/29 04:46:11;;;;;;;0.47;0.30;;;;;;;20.20;51.10;101815.25;16132930;19;129676;-43
2022/10/29 04:51:33;;;;;;;1.65;0.50;;;;;;;20.18;51.52;101809.94;16130703;19;129692;-43
2022/10/29 04:56:55;;;;;;;1.15;0.63;;;;;;;20.18;51.34;101818.28;16131536;19;130902;-41
2022/10/29 05:02:16;;;;;;;0.95;0.40;;;;;;;20.18;51.40;101809.94;16132546;19;129535;-44
2022/10/29 05:07:38;;;;;;;0.93;0.40;;;;;;;20.17;51.35;101811.00;16133289;19;130450;-41
2022/10/29 05:13:03;;;;;;;1.13;0.40;;;;;;;20.18;50.88;101796.03;16126982;19;129463;-42
2022/10/29 05:18:25;;;;;;;3.40;0.60;;;;;;;20.16;51.35;101784.31;16129648;19;131733;-43
2022/10/29 05:23:46;;;;;;;0.98;0.40;;;;;;;20.17;51.05;101793.47;16132103;19;133798;-42
2022/10/29 05:29:08;;;;;;;1.33;0.60;;;;;;;20.17;51.33;101782.38;16130780;19;129245;-42
2022/10/29 05:34:30;;;;;;;1.33;0.50;;;;;;;20.15;51.50;101782.63;16128038;19;129780;-42
2022/10/29 05:39:51;;;;;;;0.70;0.50;;;;;;;20.14;51.17;101780.91;16130143;19;129942;-46
2022/10/29 05:45:14;;;;;;;0.75;0.50;;;;;;;20.14;51.41;101772.59;16128353;19;128824;-42
2022/10/29 05:50:36;;;;;;;2.72;0.50;;;;;;;20.16;51.49;101786.22;16123904;19;129425;-41
2022/10/29 05:55:58;;;;;;;0.80;0.50;;;;;;;20.24;51.50;101785.91;16126683;19;129427;-43
2022/10/29 06:01:20;;;;;;;0.40;0.40;;;;;;;20.34;51.33;101788.09;16125243;19;130614;-42
2022/10/29 06:06:41;;;;;;;0.52;0.40;;;;;;;20.39;51.08;101785.47;16126636;19;134957;-42
2022/10/29 06:12:04;;;;;;;0.75;0.50;;;;;;;20.43;50.72;101783.91;16127100;19;129851;-41
2022/10/29 06:17:26;;;;;;;2.60;0.40;;;;;;;20.44;50.87;101791.13;16125834;19;130836;-42
2022/10/29 06:22:55;;;;;;;1.40;0.60;;;;;;;20.45;51.06;101801.19;16123174;19;129867;-44
2022/10/29 06:28:18;;;;;;;4.63;0.50;;;;;;;20.44;50.70;101799.47;16125933;19;129442;-42
2022/10/29 06:33:39;;;;;;;0.90;0.40;;;;;;;20.42;50.66;101791.38;16125347;19;129360;-41
2022/10/29 06:39:01;;;;;;;0.63;0.40;;;;;;;20.41;50.67;101786.09;16124450;19;134934;-41
2022/10/29 06:44:23;;;;;;;1.85;0.52;;;;;;;20.38;50.90;101792.94;16125903;19;130026;-41
2022/10/29 06:49:44;;;;;;;0.95;0.50;;;;;;;20.38;50.89;101789.31;16125040;19;129524;-42
2022/10/29 06:55:07;;;;;;;1.55;0.77;;;;;;;20.39;50.67;101768.78;16121824;19;133662;-42
2022/10/29 07:00:30;;;;;;;3.85;0.50;;;;;;;20.41;50.61;101761.06;16123164;19;129203;-41
2022/10/29 07:05:57;;;;;;;1.50;0.60;;;;;;;20.42;50.94;101771.09;16123633;19;129539;-42
2022/10/29 07:11:18;;;;;;;3.33;0.77;;;;;;;20.40;50.80;101776.88;16121875;19;129370;-43
2022/10/29 07:16:40;;;;;;;2.95;0.70;;;;;;;20.43;50.57;101764.47;16121706;19;130196;-43
2022/10/29 07:22:02;;;;;;;3.30;0.50;;;;;;;20.42;50.58;101762.75;16121574;19;130110;-41
2022/10/29 07:27:23;;;;;;;1.90;0.75;;;;;;;20.41;50.81;101756.34;16119775;19;129344;-41
2022/10/29 07:32:45;;;;;;;2.97;0.63;;;;;;;20.43;50.49;101764.47;16122333;19;130056;-41
2022/10/29 07:38:09;;;;;;;3.20;1.05;;;;;;;20.47;50.68;101760.09;16132715;19;130295;-42
2022/10/29 07:43:32;;;;;;;5.03;1.50;;;;;;;20.49;50.76;101757.94;16135852;19;130659;-41
2022/10/29 07:48:53;;;;;;;4.40;1.38;;;;;;;20.56;50.51;101760.59;16137169;19;129427;-41
2022/10/29 07:54:15;;;;;;;5.03;2.13;;;;;;;20.55;50.35;101751.44;16135307;19;129463;-41
2022/10/29 07:59:37;;;;;;;7.15;2.03;;;;;;;20.56;50.39;101744.75;16136112;19;130636;-42
2022/10/29 08:04:58;;;;;;;10.02;1.90;;;;;;;20.58;50.34;101745.38;16136384;19;129061;-40
2022/10/29 08:10:21;;;;;;;7.00;2.30;;;;;;;20.68;50.20;101755.91;16134714;19;129783;-42
2022/10/29 08:15:45;;;;;;;5.95;1.80;;;;;;;20.62;50.74;101750.47;16137946;19;129595;-40
2022/10/29 08:21:07;;;;;;;6.20;1.90;;;;;;;20.54;50.91;101755.28;16134859;19;130243;-40
2022/10/29 08:26:29;;;;;;;11.40;2.08;;;;;;;20.50;50.64;101754.06;16134941;19;129622;-41
2022/10/29 08:31:50;;;;;;;14.82;2.22;;;;;;;20.47;50.65;101750.94;16132376;19;130279;-41
2022/10/29 08:37:12;;;;;;;5.47;1.80;;;;;;;20.45;51.14;101756.69;16131228;19;129634;-41
2022/10/29 08:42:43;;;;;;;6.40;2.05;;;;;;;20.46;51.39;101747.28;16130926;19;129936;-45
2022/10/29 08:48:27;;;;;;;7.80;1.73;;;;;;;20.49;51.27;101746.81;16132912;19;129824;-41
2022/10/29 08:53:50;;;;;;;6.35;1.65;;;;;;;20.50;51.23;101734.63;16132276;19;129244;-41
2022/10/29 08:59:39;;;;;;;7.07;1.88;;;;;;;20.56;51.08;101728.06;16127945;19;129783;-41
2022/10/29 09:05:00;;;;;;;9.52;2.05;;;;;;;20.57;51.18;101726.16;16127663;19;129515;-43
2022/10/29 09:10:35;;;;;;;4.45;2.05;;;;;;;20.56;50.98;101722.50;16130583;19;129602;-41
2022/10/29 09:16:09;;;;;;;5.07;2.08;;;;;;;20.54;51.29;101721.06;16129290;19;129233;-41
2022/10/29 09:21:52;;;;;;;8.85;2.22;;;;;;;20.54;50.94;101733.06;16127859;19;129421;-41
2022/10/29 09:27:23;;;;;;;6.93;1.95;;;;;;;20.55;51.09;101718.06;16126470;19;129682;-41
2022/10/29 09:33:07;;;;;;;9.93;2.10;;;;;;;20.58;51.17;101714.78;16130930;19;129886;-40
2022/10/29 09:38:35;;;;;;;9.80;1.98;;;;;;;20.57;51.12;101703.94;16128241;19;129590;-44
2022/10/29 09:44:15;;;;;;;8.13;1.88;;;;;;;20.58;50.84;101698.09;16127381;19;130903;-41
2022/10/29 09:49:56;;;;;;;9.02;2.28;;;;;;;20.58;50.87;101706.44;16127857;19;129841;-42
2022/10/29 09:55:25;;;;;;;7.93;2.00;;;;;;;20.58;50.89;101706.44;16125613;19;129096;-42
2022/10/29 10:00:46;;;;;;;5.65;2.05;;;;;;;20.56;51.00;101708.63;16125996;19;130401;-44
2022/10/29 10:06:11;;;;;;;6.38;2.28;;;;;;;20.55;51.61;101701.41;16124685;19;129231;-42
2022/10/29 10:11:37;;;;;;;4.07;2.05;;;;;;;20.56;51.63;101700.28;16124414;19;130913;-41
2022/10/29 10:17:00;;;;;;;5.65;2.45;;;;;;;20.56;51.58;101697.50;16128302;19;130711;-41
2022/10/29 10:22:23;;;;;;;14.02;3.10;;;;;;;20.56;51.27;101703.06;16123483;19;130629;-41
2022/10/29 10:27:44;;;;;;;16.55;3.35;;;;;;;20.54;51.79;101694.13;16127166;19;129630;-41
2022/10/29 10:33:22;;;;;;;12.15;3.08;;;;;;;20.56;51.65;101703.06;16125589;19;132691;-41
2022/10/29 10:39:04;;;;;;;18.80;4.50;;;;;;;20.56;51.76;101693.88;16124304;19;129495;-41
2022/10/29 10:44:27;;;;;;;20.33;4.50;;;;;;;20.58;52.25;101695.34;16124860;19;129709;-41
2022/10/29 10:49:48;;;;;;;18.42;4.35;;;;;;;20.60;52.13;101693.16;16122481;19;129606;-41
2022/10/29 10:55:33;;;;;;;16.98;3.88;;;;;;;20.63;52.33;101680.69;16114170;19;130140;-45
2022/10/29 11:01:04;;;;;;;23.17;4.95;;;;;;;20.63;52.55;101674.31;16116462;19;129362;-41
2022/10/29 11:06:34;;;;;;;13.38;3.80;;;;;;;20.63;52.89;101668.75;16119632;19;129655;-41
2022/10/29 11:11:59;;;;;;;13.90;4.07;;;;;;;20.63;52.67;101663.19;16131311;19;129032;-41
2022/10/29 11:17:44;;;;;;;11.77;4.15;;;;;;;20.63;52.53;101658.47;16136029;19;129552;-43
2022/10/29 11:23:58;;;;;;;11.88;3.95;;;;;;;20.63;52.67;101652.06;16131829;19;129434;-39
2022/10/29 11:29:56;;;;;;;20.30;3.42;;;;;;;20.63;53.31;101644.56;16134787;19;129727;-43
2022/10/29 11:35:44;;;;;;;14.80;3.17;;;;;;;20.64;53.07;101639.88;16133186;19;130327;-42
2022/10/29 11:41:20;;;;;;;21.80;4.15;;;;;;;20.64;53.10;101637.91;16133510;19;132238;-40
2022/10/29 11:46:57;;;;;;;;;;;;;;;20.64;53.42;101631.53;16136184;19;129652;-41
2022/10/29 11:52:31;;;;;;;20.50;4.20;;;;;;;20.70;52.76;101630.53;16135855;19;129777;-42
2022/10/29 11:58:22;;;;;;;17.95;3.80;;;;;;;20.72;52.00;101620.88;16135656;19;129479;-41
2022/10/29 12:04:19;;;;;;;23.73;4.65;;;;;;;20.78;51.74;101605.19;16139053;19;129617;-41
2022/10/29 12:09:53;;;;;;;18.67;4.35;;;;;;;20.86;51.41;101602.03;16125041;19;129941;-41
2022/10/29 12:15:25;;;;;;;20.10;3.97;;;;;;;20.94;51.13;101602.72;16123824;19;129475;-41
2022/10/29 12:20:58;;;;;;;16.80;4.10;;;;;;;21.01;51.08;101595.09;16122021;19;130547;-39
2022/10/29 12:26:26;;;;;;;24.13;4.10;;;;;;;21.06;50.71;101590.47;16123239;19;129777;-42
2022/10/29 12:32:26;;;;;;;11.07;3.72;;;;;;;21.11;50.38;101586.94;16122557;19;129798;-41
2022/10/29 12:37:59;;;;;;;17.25;4.13;;;;;;;21.11;50.58;101578.59;16122409;19;129576;-43
2022/10/29 12:43:30;;;;;;;16.95;4.03;;;;;;;21.10;50.03;101568.56;16124460;19;130483;-41
2022/10/29 12:49:14;;;;;;;22.65;3.97;;;;;;;21.06;50.21;101564.56;16133358;19;128874;-43
2022/10/29 12:54:40;;;;;;;12.43;4.35;;;;;;;21.01;50.29;101558.94;16134798;19;129109;-43
2022/10/29 13:00:29;;;;;;;9.93;3.60;;;;;;;20.97;50.23;101550.25;16131429;19;131663;-41
2022/10/29 13:05:51;;;;;;;15.98;3.60;;;;;;;20.93;50.72;101550.97;16134607;19;129505;-41
2022/10/29 13:11:23;;;;;;;13.80;3.92;;;;;;;20.92;50.55;101555.69;16125563;19;129131;-42
2022/10/29 13:16:48;;;;;;;14.40;3.90;;;;;;;20.90;50.73;101553.16;16130643;19;129515;-39
2022/10/29 13:22:16;;;;;;;10.47;3.17;;;;;;;20.94;50.83;101549.88;16130630;19;128948;-41
2022/10/29 13:27:37;;;;;;;23.42;3.70;;;;;;;20.94;50.65;101535.97;16133948;19;130405;-40
2022/10/29 13:32:59;;;;;;;13.63;3.38;;;;;;;20.96;50.64;101533.78;16124507;19;129424;-41
2022/10/29 13:38:44;;;;;;;20.25;4.25;;;;;;;20.98;50.90;101531.59;16130692;19;132028;-41
2022/10/29 13:44:27;;;;;;;16.70;3.58;;;;;;;21.00;50.60;101523.84;16129814;19;129612;-43
2022/10/29 13:49:50;;;;;;;7.32;3.13;;;;;;;21.01;51.03;101528.34;16131548;19;129804;-43
2022/10/29 13:55:15;;;;;;;11.43;3.30;;;;;;;21.02;50.45;101532.81;16124892;19;129750;-43
2022/10/29 14:00:37;;;;;;;15.20;3.77;;;;;;;20.99;50.39;101528.56;16126475;19;128934;-42
2022/10/29 14:06:05;;;;;;;15.95;4.05;;;;;;;21.00;50.27;101530.25;16123417;19;129318;-42
2022/10/29 14:11:37;;;;;;;14.10;3.40;;;;;;;20.98;50.35;101515.78;16125942;19;130495;-42
2022/10/29 14:17:17;;;;;;;17.65;4.57;;;;;;;20.98;50.40;101507.44;16128118;19;129464;-42
2022/10/29 14:22:39;;;;;;;19.50;4.63;;;;;;;20.97;51.01;101497.41;16126498;19;129581;-43
2022/10/29 14:28:23;;;;;;;17.42;4.22;;;;;;;20.99;50.88;101497.13;16123011;19;129924;-40
2022/10/29 14:33:52;;;;;;;20.55;4.22;;;;;;;20.98;50.78;101487.97;16125254;19;130388;-42
2022/10/29 14:39:16;;;;;;;12.35;3.67;;;;;;;20.99;50.83;101477.66;16121658;19;129133;-43
2022/10/29 14:44:38;;;;;;;17.65;3.90;;;;;;;20.99;50.68;101480.44;16124830;19;130735;-45
2022/10/29 14:50:05;;;;;;;13.38;3.88;;;;;;;20.99;50.29;101474.88;16124431;19;129182;-42
2022/10/29 14:55:31;;;;;;;12.40;3.45;;;;;;;20.97;50.44;101482.63;16121595;19;129961;-42
2022/10/29 15:00:56;;;;;;;12.88;3.80;;;;;;;20.94;50.12;101470.06;16125796;19;129645;-43
2022/10/29 15:06:24;;;;;;;13.55;4.13;;;;;;;20.92;50.05;101476.97;16119982;19;129792;-41
2022/10/29 15:12:01;;;;;;;12.07;3.58;;;;;;;20.90;50.42;101475.28;16118051;19;130138;-43
2022/10/29 15:17:27;;;;;;;17.00;3.60;;;;;;;20.87;50.47;101461.88;16121263;19;130441;-42
2022/10/29 15:22:54;;;;;;;11.55;3.63;;;;;;;20.89;50.12;101467.19;16120682;19;130078;-42
2022/10/29 15:28:47;;;;;;;9.25;3.30;;;;;;;20.89;50.60;101467.19;16122348;19;128967;-39
2022/10/29 15:34:23;;;;;;;12.32;3.75;;;;;;;20.90;50.30;101460.53;16120540;19;129590;-41
2022/10/29 15:40:12;;;;;;;16.63;3.40;;;;;;;20.87;50.70;101470.22;16122305;19;129181;-41
2022/10/29 15:45:33;;;;;;;12.90;3.50;;;;;;;20.85;50.58;101461.28;16119535;19;129755;-41
2022/10/29 15:50:56;;;;;;;34.25;9.05;;;;;;;20.83;51.08;101451.50;16120774;19;129469;-42
2022/10/29 15:56:18;;;;;;;55.00;18.30;;;;;;;20.84;51.01;101447.63;16124229;19;129647;-42
2022/10/29 16:01:40;;;;;;;50.63;20.45;;;;;;;20.82;51.66;101441.47;16136121;19;129657;-41
2022/10/29 16:07:01;;;;;;;50.28;19.42;;;;;;;20.81;51.89;101437.81;16134945;19;131312;-41
2022/10/29 16:12:24;;;;;;;39.55;17.63;;;;;;;20.80;51.84;101425.00;16134559;19;129953;-42
2022/10/29 16:17:46;;;;;;;45.97;17.73;;;;;;;20.81;52.03;101423.09;16134483;19;129779;-43
2022/10/29 16:23:12;;;;;;;41.53;16.02;;;;;;;20.79;52.37;101417.78;16129118;19;129357;-42
2022/10/29 16:28:33;;;;;;;36.85;15.98;;;;;;;20.77;52.32;101403.28;16132301;19;129643;-42
2022/10/29 16:33:57;;;;;;;36.13;15.10;;;;;;;20.76;52.19;101401.59;16131608;19;129117;-41
2022/10/29 16:39:19;;;;;;;33.13;13.30;;;;;;;20.74;52.12;101406.53;16133623;19;129673;-41
2022/10/29 16:44:51;;;;;;;33.22;13.82;;;;;;;20.73;52.18;101413.19;16119497;19;130284;-42
2022/10/29 16:50:33;;;;;;;26.23;11.48;;;;;;;20.70;51.88;101424.78;16122705;19;130419;-41
2022/10/29 16:55:54;;;;;;;22.50;10.68;;;;;;;20.65;52.01;101446.94;16115814;19;129505;-46
2022/10/29 17:01:17;;;;;;;26.90;10.68;;;;;;;20.61;52.26;101454.94;16116079;19;129982;-42
2022/10/29 17:06:39;;;;;;;24.33;9.77;;;;;;;20.62;52.02;101461.34;16121850;19;129696;-48
2022/10/29 17:12:01;;;;;;;19.08;9.07;;;;;;;20.60;52.18;101475.50;16122724;19;130196;-41
2022/10/29 17:17:22;;;;;;;27.23;9.45;;;;;;;20.59;52.44;101479.34;16134313;19;129459;-49
2022/10/29 17:22:44;;;;;;;25.83;8.45;;;;;;;20.63;52.38;101474.16;16129413;19;129776;-48
2022/10/29 17:28:06;;;;;;;23.90;8.13;;;;;;;20.68;52.78;101490.91;16127433;19;129333;-45
2022/10/29 17:33:27;;;;;;;32.05;8.15;;;;;;;20.71;52.67;101488.50;16126698;19;129411;-43
2022/10/29 17:38:49;;;;;;;23.88;7.38;;;;;;;20.74;52.91;101499.13;16130319;19;129645;-43
2022/10/29 17:44:11;;;;;;;16.65;6.63;;;;;;;20.78;52.67;101496.75;16143325;19;129702;-47
2022/10/29 17:49:33;;;;;;;19.73;6.85;;;;;;;20.80;52.54;101502.88;16145098;19;129401;-40
2022/10/29 17:54:55;;;;;;;16.13;5.35;;;;;;;20.84;52.54;101492.97;16145908;19;128954;-48
2022/10/29 18:00:17;;;;;;;20.23;6.13;;;;;;;20.86;52.44;101496.34;16147105;19;130452;-48
2022/10/29 18:05:39;;;;;;;16.52;4.93;;;;;;;20.89;52.22;101501.41;16148083;19;129045;-45
2022/10/29 18:11:05;;;;;;;24.15;5.43;;;;;;;20.90;52.66;101485.56;16143701;19;129077;-44
2022/10/29 18:16:29;;;;;;;26.67;5.50;;;;;;;20.89;52.19;101497.78;16145175;19;129849;-48
2022/10/29 18:21:50;;;;;;;25.52;5.35;;;;;;;20.88;52.49;101494.16;16138372;19;129466;-42
2022/10/29 18:27:15;;;;;;;21.00;4.30;;;;;;;20.87;52.48;101498.03;16128732;19;130277;-43
2022/10/29 18:32:37;;;;;;;13.68;4.03;;;;;;;20.87;52.43;101500.81;16130916;19;129268;-43
2022/10/29 18:37:59;;;;;;;15.20;3.63;;;;;;;20.86;52.58;101504.69;16124423;19;129830;-42
2022/10/29 18:43:22;;;;;;;17.38;4.00;;;;;;;20.87;52.63;101497.16;16122676;19;129779;-41
2022/10/29 18:48:46;;;;;;;14.50;3.47;;;;;;;20.85;52.70;101491.88;16126116;19;129523;-47
2022/10/29 18:54:11;;;;;;;15.90;3.55;;;;;;;20.85;52.23;101489.09;16126755;19;129017;-48
2022/10/29 18:59:33;;;;;;;;;;;;;;;20.82;52.56;101500.69;16126411;19;129977;-50
2022/10/29 19:04:55;;;;;;;7.13;2.25;;;;;;;20.84;52.43;101512.41;16128689;19;129208;-48
2022/10/29 19:10:16;;;;;;;5.50;2.22;;;;;;;20.83;52.57;101510.72;16125640;19;130642;-43
2022/10/29 19:15:38;;;;;;;7.75;2.45;;;;;;;20.83;52.60;101502.38;16123985;19;130710;-44
2022/10/29 19:21:02;;;;;;;8.60;2.70;;;;;;;20.83;52.82;101513.50;16121317;19;129490;-42
2022/10/29 19:26:26;;;;;;;7.10;2.55;;;;;;;20.82;52.77;101517.38;16120179;19;129724;-42
2022/10/29 19:31:48;;;;;;;6.80;2.30;;;;;;;20.83;52.70;101518.25;16127564;19;130339;-42
2022/10/29 19:37:10;;;;;;;11.68;2.08;;;;;;;20.82;52.87;101527.69;16137363;19;130239;-42
2022/10/29 19:42:32;;;;;;;7.15;2.17;;;;;;;20.81;52.93;101526.81;16136210;19;130325;-42
2022/10/29 19:47:53;;;;;;;6.10;2.38;;;;;;;20.81;52.97;101532.38;16134155;19;129880;-42
2022/10/29 19:53:16;;;;;;;5.00;1.40;;;;;;;20.81;52.80;101532.38;16138386;19;129513;-43
2022/10/29 19:58:37;;;;;;;4.97;1.40;;;;;;;20.81;52.92;101531.53;16136247;19;129544;-41
2022/10/29 20:03:59;;;;;;;8.07;1.70;;;;;;;20.79;53.10;101537.38;16135203;19;129614;-42
2022/10/29 20:09:21;;;;;;;8.23;1.70;;;;;;;20.79;53.10;101550.41;16134466;19;129065;-42
2022/10/29 20:14:42;;;;;;;6.28;1.73;;;;;;;20.78;52.86;101538.44;16136912;19;129683;-43
2022/10/29 20:20:05;;;;;;;22.77;2.28;;;;;;;20.78;53.00;101541.22;16134767;19;129425;-42
2022/10/29 20:25:27;;;;;;;7.18;1.42;;;;;;;20.77;53.22;101542.31;16135336;19;129843;-42
2022/10/29 20:30:49;;;;;;;8.77;2.05;;;;;;;20.77;52.75;101542.31;16134915;19;128990;-42
2022/10/29 20:36:10;;;;;;;9.00;2.05;;;;;;;20.77;52.84;101531.19;16136546;19;129684;-43
2022/10/29 20:41:32;;;;;;;7.72;1.42;;;;;;;20.78;53.05;101538.44;16134671;19;129834;-42
2022/10/29 20:46:54;;;;;;;8.70;1.70;;;;;;;20.78;53.25;101540.38;16134312;19;129776;-44
2022/10/29 20:52:16;;;;;;;5.30;1.40;;;;;;;20.77;52.88;101550.66;16134148;19;130662;-42
2022/10/29 20:57:37;;;;;;;6.70;2.00;;;;;;;20.77;53.09;101552.59;16135609;19;129005;-44
2022/10/29 21:02:59;;;;;;;5.90;1.30;;;;;;;20.76;53.09;101551.75;16132215;19;129388;-43
2022/10/29 21:08:21;;;;;;;8.02;1.52;;;;;;;20.75;53.17;101567.56;16131285;19;129578;-42
2022/10/29 21:13:43;;;;;;;4.68;1.70;;;;;;;20.73;53.00;101555.84;16128859;19;129571;-42
2022/10/29 21:19:05;;;;;;;5.28;1.45;;;;;;;20.71;52.76;101568.28;16129664;19;130967;-43
2022/10/29 21:24:27;;;;;;;9.18;1.48;;;;;;;20.70;52.95;101569.38;16129103;19;128964;-43
2022/10/29 21:29:49;;;;;;;9.38;1.30;;;;;;;20.68;52.88;101572.41;16130882;19;129064;-44
2022/10/29 21:35:10;;;;;;;9.77;1.67;;;;;;;20.67;53.07;101565.16;16130758;19;129752;-43
2022/10/29 21:40:32;;;;;;;8.10;1.85;;;;;;;20.65;53.00;101577.63;16128312;19;129442;-48
2022/10/29 21:45:54;;;;;;;5.57;1.23;;;;;;;20.63;52.67;101580.63;16129562;19;129836;-42
2022/10/29 21:51:16;;;;;;;7.82;1.40;;;;;;;20.62;52.97;101583.66;16130716;19;129382;-42
2022/10/29 21:56:37;;;;;;;4.18;1.60;;;;;;;20.60;53.01;101593.09;16128003;19;129669;-43
2022/10/29 22:01:59;;;;;;;5.97;1.40;;;;;;;20.58;52.76;101584.13;16132550;19;129517;-43
2022/10/29 22:07:21;;;;;;;6.50;1.20;;;;;;;20.57;52.94;101588.00;16130557;19;134074;-42
2022/10/29 22:12:43;;;;;;;2.92;1.02;;;;;;;20.55;52.93;101584.66;16130844;19;129483;-42
2022/10/29 22:18:05;;;;;;;3.83;0.88;;;;;;;20.55;52.78;101592.97;16127178;19;129476;-44
2022/10/29 22:23:26;;;;;;;2.35;1.00;;;;;;;20.53;52.87;101586.81;16127814;19;131606;-43
2022/10/29 22:28:48;;;;;;;5.10;1.00;;;;;;;20.52;52.74;101596.25;16127433;19;129714;-42
2022/10/29 22:34:10;;;;;;;3.78;1.30;;;;;;;20.51;52.57;101602.88;16127551;19;129864;-42
2022/10/29 22:39:32;;;;;;;1.30;0.80;;;;;;;20.50;52.87;101608.66;16124295;19;129412;-43
2022/10/29 22:44:54;;;;;;;2.22;1.05;;;;;;;20.48;52.90;101600.59;16123047;19;129448;-42
2022/10/29 22:50:15;;;;;;;4.53;1.13;;;;;;;20.48;52.67;101606.16;16122647;19;130566;-42
2022/10/29 22:55:37;;;;;;;3.00;1.00;;;;;;;20.47;52.35;101598.06;16121795;19;129989;-46
2022/10/29 23:01:29;;;;;;;2.03;1.00;;;;;;;20.47;52.58;101604.44;16122727;19;130525;-46
2022/10/29 23:06:51;;;;;;;1.95;0.93;;;;;;;20.44;52.74;101605.78;16123561;19;129276;-42
2022/10/29 23:12:13;;;;;;;2.67;0.85;;;;;;;20.44;52.31;101604.94;16122109;19;129567;-42
2022/10/29 23:17:34;;;;;;;1.83;0.98;;;;;;;20.43;52.75;101608.81;16122631;19;129969;-49
2022/10/29 23:22:56;;;;;;;2.55;0.88;;;;;;;20.42;52.50;101607.13;16123944;19;129166;-43
2022/10/29 23:28:18;;;;;;;1.10;0.82;;;;;;;20.41;52.72;101602.66;16123003;19;128968;-42
2022/10/29 23:33:48;;;;;;;2.65;0.90;;;;;;;20.41;52.46;101608.22;16122304;19;129945;-42
2022/10/29 23:39:10;;;;;;;1.20;0.80;;;;;;;20.39;52.43;101602.88;16121289;19;129847;-44
2022/10/29 23:44:32;;;;;;;0.90;0.60;;;;;;;20.39;52.41;101613.16;16120932;19;129245;-42
2022/10/29 23:49:54;;;;;;;1.52;0.82;;;;;;;20.38;52.46;101612.31;16123624;19;129206;-42
2022/10/29 23:55:15;;;;;;;2.70;0.70;;;;;;;20.38;52.63;101617.84;16123647;19;130275;-43
